Quata, Brazil
Current Conditions -  °F | °C
As of 5:30 PM on Monday 22 Dec 2014 (Local Time) from SBDN Reporting Station
Light Rain Light Rain  
Wind Chill: 72°   Ceiling: 6500
Heat Index: 72°   Visibility: 3mi
Dew Point: 70°   Wind: 7mph
Humidity: 94%   Direction: 240°WSW
Pressure: 29.85"   Gusts: NA
Location:  22.25°S, 50.7°W
Report Text: SBDN 221930Z 24006KT 5000 -RA SCT010 OVC065 22/21 Q1011 RETS
Loading
Personal Weather Stations






























Interactive Weather Map New forecast layout! Learn more

10-Day Weather Forecast

Advertisements
Track Severe Weather on mobile